sensor_id;sensor_type;location;lat;lon;timestamp;P1;P2;P0
56613;PMS5003;75854;35.670;139.690;2024-01-30T00:01:54;26;26;
56613;PMS5003;75854;35.670;139.690;2024-01-30T00:04:24;33;29;
56613;PMS5003;75854;35.670;139.690;2024-01-30T00:06:54;29;29;
56613;PMS5003;75854;35.670;139.690;2024-01-30T00:09:24;29;27;
56613;PMS5003;75854;35.670;139.690;2024-01-30T00:11:54;26;25;
56613;PMS5003;75854;35.670;139.690;2024-01-30T00:14:29;30;29;
56613;PMS5003;75854;35.670;139.690;2024-01-30T00:16:59;30;28;
56613;PMS5003;75854;35.670;139.690;2024-01-30T00:19:29;31;29;
56613;PMS5003;75854;35.670;139.690;2024-01-30T00:21:58;26;26;
56613;PMS5003;75854;35.670;139.690;2024-01-30T00:24:28;30;28;
56613;PMS5003;75854;35.670;139.690;2024-01-30T00:26:58;34;33;
56613;PMS5003;75854;35.670;139.690;2024-01-30T00:29:28;31;29;
56613;PMS5003;75854;35.670;139.690;2024-01-30T00:31:58;32;31;
56613;PMS5003;75854;35.670;139.690;2024-01-30T00:34:28;31;28;
56613;PMS5003;75854;35.670;139.690;2024-01-30T00:36:58;34;34;
56613;PMS5003;75854;35.670;139.690;2024-01-30T00:39:28;40;38;
56613;PMS5003;75854;35.670;139.690;2024-01-30T00:41:57;38;38;
56613;PMS5003;75854;35.670;139.690;2024-01-30T00:44:27;28;25;
56613;PMS5003;75854;35.670;139.690;2024-01-30T00:46:57;30;27;
56613;PMS5003;75854;35.670;139.690;2024-01-30T00:49:28;36;32;
56613;PMS5003;75854;35.670;139.690;2024-01-30T00:51:58;32;30;
56613;PMS5003;75854;35.670;139.690;2024-01-30T00:54:28;27;27;
56613;PMS5003;75854;35.670;139.690;2024-01-30T00:56:59;28;26;
56613;PMS5003;75854;35.670;139.690;2024-01-30T00:59:29;27;23;
56613;PMS5003;75854;35.670;139.690;2024-01-30T01:01:58;29;28;
56613;PMS5003;75854;35.670;139.690;2024-01-30T01:04:28;32;30;
56613;PMS5003;75854;35.670;139.690;2024-01-30T01:06:58;28;28;
56613;PMS5003;75854;35.670;139.690;2024-01-30T01:09:28;29;24;
56613;PMS5003;75854;35.670;139.690;2024-01-30T01:11:58;27;27;
56613;PMS5003;75854;35.670;139.690;2024-01-30T01:14:28;24;23;
56613;PMS5003;75854;35.670;139.690;2024-01-30T01:16:58;25;23;
56613;PMS5003;75854;35.670;139.690;2024-01-30T01:19:28;28;27;
56613;PMS5003;75854;35.670;139.690;2024-01-30T01:21:59;24;23;
56613;PMS5003;75854;35.670;139.690;2024-01-30T01:24:30;29;28;
56613;PMS5003;75854;35.670;139.690;2024-01-30T01:27:00;29;26;
56613;PMS5003;75854;35.670;139.690;2024-01-30T01:29:30;26;25;
56613;PMS5003;75854;35.670;139.690;2024-01-30T01:32:00;28;23;
56613;PMS5003;75854;35.670;139.690;2024-01-30T01:34:30;28;28;
56613;PMS5003;75854;35.670;139.690;2024-01-30T01:36:59;28;24;
56613;PMS5003;75854;35.670;139.690;2024-01-30T01:39:29;25;24;
56613;PMS5003;75854;35.670;139.690;2024-01-30T01:41:58;32;29;
56613;PMS5003;75854;35.670;139.690;2024-01-30T01:44:28;24;24;
56613;PMS5003;75854;35.670;139.690;2024-01-30T01:46:59;31;28;
56613;PMS5003;75854;35.670;139.690;2024-01-30T01:49:30;23;23;
56613;PMS5003;75854;35.670;139.690;2024-01-30T01:52:00;24;24;
56613;PMS5003;75854;35.670;139.690;2024-01-30T01:54:30;25;22;
56613;PMS5003;75854;35.670;139.690;2024-01-30T01:57:00;20;20;
56613;PMS5003;75854;35.670;139.690;2024-01-30T01:59:30;23;22;
56613;PMS5003;75854;35.670;139.690;2024-01-30T02:02:00;22;21;
56613;PMS5003;75854;35.670;139.690;2024-01-30T02:04:32;24;22;
56613;PMS5003;75854;35.670;139.690;2024-01-30T02:07:02;26;24;
56613;PMS5003;75854;35.670;139.690;2024-01-30T02:09:32;23;22;
56613;PMS5003;75854;35.670;139.690;2024-01-30T02:12:02;22;22;
56613;PMS5003;75854;35.670;139.690;2024-01-30T02:14:32;36;34;
56613;PMS5003;75854;35.670;139.690;2024-01-30T02:17:12;21;20;
56613;PMS5003;75854;35.670;139.690;2024-01-30T02:19:42;20;20;
56613;PMS5003;75854;35.670;139.690;2024-01-30T02:22:12;24;22;
56613;PMS5003;75854;35.670;139.690;2024-01-30T02:24:43;21;19;
56613;PMS5003;75854;35.670;139.690;2024-01-30T02:27:13;20;20;
56613;PMS5003;75854;35.670;139.690;2024-01-30T02:29:43;22;20;
56613;PMS5003;75854;35.670;139.690;2024-01-30T02:32:13;19;19;
56613;PMS5003;75854;35.670;139.690;2024-01-30T02:34:43;25;22;
56613;PMS5003;75854;35.670;139.690;2024-01-30T02:37:13;22;22;
56613;PMS5003;75854;35.670;139.690;2024-01-30T02:39:44;29;28;
56613;PMS5003;75854;35.670;139.690;2024-01-30T02:42:14;19;19;
56613;PMS5003;75854;35.670;139.690;2024-01-30T02:44:44;28;24;
56613;PMS5003;75854;35.670;139.690;2024-01-30T02:47:14;19;19;
56613;PMS5003;75854;35.670;139.690;2024-01-30T02:49:44;21;21;
56613;PMS5003;75854;35.670;139.690;2024-01-30T02:52:14;22;19;
56613;PMS5003;75854;35.670;139.690;2024-01-30T02:54:44;23;21;
56613;PMS5003;75854;35.670;139.690;2024-01-30T02:57:14;24;24;
56613;PMS5003;75854;35.670;139.690;2024-01-30T02:59:44;25;25;
56613;PMS5003;75854;35.670;139.690;2024-01-30T03:02:14;26;25;
56613;PMS5003;75854;35.670;139.690;2024-01-30T03:04:44;28;28;
56613;PMS5003;75854;35.670;139.690;2024-01-30T03:07:14;30;30;
56613;PMS5003;75854;35.670;139.690;2024-01-30T03:09:44;27;26;
56613;PMS5003;75854;35.670;139.690;2024-01-30T03:12:13;23;22;
56613;PMS5003;75854;35.670;139.690;2024-01-30T03:14:43;26;24;
56613;PMS5003;75854;35.670;139.690;2024-01-30T03:17:13;25;25;
56613;PMS5003;75854;35.670;139.690;2024-01-30T03:19:44;23;23;
56613;PMS5003;75854;35.670;139.690;2024-01-30T03:22:14;30;28;
56613;PMS5003;75854;35.670;139.690;2024-01-30T03:24:44;25;25;
56613;PMS5003;75854;35.670;139.690;2024-01-30T03:27:14;25;25;
56613;PMS5003;75854;35.670;139.690;2024-01-30T03:29:44;31;31;
56613;PMS5003;75854;35.670;139.690;2024-01-30T03:32:14;27;27;
56613;PMS5003;75854;35.670;139.690;2024-01-30T03:34:44;30;29;
56613;PMS5003;75854;35.670;139.690;2024-01-30T03:37:14;28;27;
56613;PMS5003;75854;35.670;139.690;2024-01-30T03:39:44;24;23;
56613;PMS5003;75854;35.670;139.690;2024-01-30T03:42:13;26;25;
56613;PMS5003;75854;35.670;139.690;2024-01-30T03:44:44;20;20;
56613;PMS5003;75854;35.670;139.690;2024-01-30T03:47:13;22;22;
56613;PMS5003;75854;35.670;139.690;2024-01-30T03:49:44;20;20;
56613;PMS5003;75854;35.670;139.690;2024-01-30T03:52:14;23;21;
56613;PMS5003;75854;35.670;139.690;2024-01-30T03:54:44;23;21;
56613;PMS5003;75854;35.670;139.690;2024-01-30T03:57:13;24;23;
56613;PMS5003;75854;35.670;139.690;2024-01-30T03:59:44;22;21;
56613;PMS5003;75854;35.670;139.690;2024-01-30T04:02:13;29;27;
56613;PMS5003;75854;35.670;139.690;2024-01-30T04:04:43;19;19;
56613;PMS5003;75854;35.670;139.690;2024-01-30T04:07:13;21;20;
56613;PMS5003;75854;35.670;139.690;2024-01-30T04:09:44;19;17;
56613;PMS5003;75854;35.670;139.690;2024-01-30T04:12:14;21;17;
56613;PMS5003;75854;35.670;139.690;2024-01-30T04:14:45;27;23;
56613;PMS5003;75854;35.670;139.690;2024-01-30T04:17:15;20;19;
56613;PMS5003;75854;35.670;139.690;2024-01-30T04:19:46;21;19;
56613;PMS5003;75854;35.670;139.690;2024-01-30T04:22:15;17;17;
56613;PMS5003;75854;35.670;139.690;2024-01-30T04:24:46;20;17;
56613;PMS5003;75854;35.670;139.690;2024-01-30T04:27:16;20;18;
56613;PMS5003;75854;35.670;139.690;2024-01-30T04:29:46;18;18;
56613;PMS5003;75854;35.670;139.690;2024-01-30T04:32:16;17;16;
56613;PMS5003;75854;35.670;139.690;2024-01-30T04:34:46;17;17;
56613;PMS5003;75854;35.670;139.690;2024-01-30T04:37:16;24;20;
56613;PMS5003;75854;35.670;139.690;2024-01-30T04:39:46;14;14;
56613;PMS5003;75854;35.670;139.690;2024-01-30T04:42:16;16;16;
56613;PMS5003;75854;35.670;139.690;2024-01-30T04:44:47;21;21;
56613;PMS5003;75854;35.670;139.690;2024-01-30T04:47:17;20;18;
56613;PMS5003;75854;35.670;139.690;2024-01-30T04:49:47;18;17;
56613;PMS5003;75854;35.670;139.690;2024-01-30T04:52:17;22;19;
56613;PMS5003;75854;35.670;139.690;2024-01-30T04:54:46;14;14;
56613;PMS5003;75854;35.670;139.690;2024-01-30T04:57:16;24;23;
56613;PMS5003;75854;35.670;139.690;2024-01-30T04:59:46;20;20;
56613;PMS5003;75854;35.670;139.690;2024-01-30T05:02:16;20;20;
56613;PMS5003;75854;35.670;139.690;2024-01-30T05:04:46;21;20;
56613;PMS5003;75854;35.670;139.690;2024-01-30T05:07:16;18;18;
56613;PMS5003;75854;35.670;139.690;2024-01-30T05:09:47;17;17;
56613;PMS5003;75854;35.670;139.690;2024-01-30T05:12:17;19;19;
56613;PMS5003;75854;35.670;139.690;2024-01-30T05:14:47;28;25;
56613;PMS5003;75854;35.670;139.690;2024-01-30T05:17:17;24;24;
56613;PMS5003;75854;35.670;139.690;2024-01-30T05:19:49;26;21;
56613;PMS5003;75854;35.670;139.690;2024-01-30T05:22:19;28;26;
56613;PMS5003;75854;35.670;139.690;2024-01-30T05:24:49;23;21;
56613;PMS5003;75854;35.670;139.690;2024-01-30T05:27:19;19;19;
56613;PMS5003;75854;35.670;139.690;2024-01-30T05:29:48;24;24;
56613;PMS5003;75854;35.670;139.690;2024-01-30T05:32:18;19;17;
56613;PMS5003;75854;35.670;139.690;2024-01-30T05:34:49;23;22;
56613;PMS5003;75854;35.670;139.690;2024-01-30T05:37:18;23;23;
56613;PMS5003;75854;35.670;139.690;2024-01-30T05:39:49;21;20;
56613;PMS5003;75854;35.670;139.690;2024-01-30T05:42:19;23;20;
56613;PMS5003;75854;35.670;139.690;2024-01-30T05:44:49;24;23;
56613;PMS5003;75854;35.670;139.690;2024-01-30T05:47:19;28;26;
56613;PMS5003;75854;35.670;139.690;2024-01-30T05:49:48;23;22;
56613;PMS5003;75854;35.670;139.690;2024-01-30T05:52:19;15;15;
56613;PMS5003;75854;35.670;139.690;2024-01-30T05:54:48;19;19;
56613;PMS5003;75854;35.670;139.690;2024-01-30T05:57:19;22;22;
56613;PMS5003;75854;35.670;139.690;2024-01-30T05:59:49;21;19;
56613;PMS5003;75854;35.670;139.690;2024-01-30T06:02:19;22;22;
56613;PMS5003;75854;35.670;139.690;2024-01-30T06:04:49;20;19;
56613;PMS5003;75854;35.670;139.690;2024-01-30T06:07:19;23;21;
56613;PMS5003;75854;35.670;139.690;2024-01-30T06:09:49;19;19;
56613;PMS5003;75854;35.670;139.690;2024-01-30T06:12:19;24;21;
56613;PMS5003;75854;35.670;139.690;2024-01-30T06:14:49;23;22;
56613;PMS5003;75854;35.670;139.690;2024-01-30T06:17:19;23;22;
56613;PMS5003;75854;35.670;139.690;2024-01-30T06:19:49;25;22;
56613;PMS5003;75854;35.670;139.690;2024-01-30T06:22:19;17;17;
56613;PMS5003;75854;35.670;139.690;2024-01-30T06:24:49;18;16;
56613;PMS5003;75854;35.670;139.690;2024-01-30T06:27:19;19;19;
56613;PMS5003;75854;35.670;139.690;2024-01-30T06:29:50;19;18;
56613;PMS5003;75854;35.670;139.690;2024-01-30T06:32:20;21;19;
56613;PMS5003;75854;35.670;139.690;2024-01-30T06:34:49;19;18;
56613;PMS5003;75854;35.670;139.690;2024-01-30T06:37:19;15;15;
56613;PMS5003;75854;35.670;139.690;2024-01-30T06:39:49;15;15;
56613;PMS5003;75854;35.670;139.690;2024-01-30T06:42:20;14;14;
56613;PMS5003;75854;35.670;139.690;2024-01-30T06:44:49;17;17;
56613;PMS5003;75854;35.670;139.690;2024-01-30T06:47:19;17;17;
56613;PMS5003;75854;35.670;139.690;2024-01-30T06:49:50;17;17;
56613;PMS5003;75854;35.670;139.690;2024-01-30T06:52:19;20;17;
56613;PMS5003;75854;35.670;139.690;2024-01-30T06:54:50;19;16;
56613;PMS5003;75854;35.670;139.690;2024-01-30T06:57:20;19;19;
56613;PMS5003;75854;35.670;139.690;2024-01-30T06:59:49;20;18;
56613;PMS5003;75854;35.670;139.690;2024-01-30T07:02:20;19;18;
56613;PMS5003;75854;35.670;139.690;2024-01-30T07:04:50;19;16;
56613;PMS5003;75854;35.670;139.690;2024-01-30T07:07:21;18;18;
56613;PMS5003;75854;35.670;139.690;2024-01-30T07:09:51;20;20;
56613;PMS5003;75854;35.670;139.690;2024-01-30T07:12:21;30;29;
56613;PMS5003;75854;35.670;139.690;2024-01-30T07:14:51;31;29;
56613;PMS5003;75854;35.670;139.690;2024-01-30T07:17:22;29;28;
56613;PMS5003;75854;35.670;139.690;2024-01-30T07:19:52;27;27;
56613;PMS5003;75854;35.670;139.690;2024-01-30T07:22:21;32;29;
56613;PMS5003;75854;35.670;139.690;2024-01-30T07:24:51;29;28;
56613;PMS5003;75854;35.670;139.690;2024-01-30T07:27:21;36;35;
56613;PMS5003;75854;35.670;139.690;2024-01-30T07:29:50;33;33;
56613;PMS5003;75854;35.670;139.690;2024-01-30T07:32:21;41;35;
56613;PMS5003;75854;35.670;139.690;2024-01-30T07:34:51;33;32;
56613;PMS5003;75854;35.670;139.690;2024-01-30T07:37:21;32;31;
56613;PMS5003;75854;35.670;139.690;2024-01-30T07:39:51;29;26;
56613;PMS5003;75854;35.670;139.690;2024-01-30T07:42:21;33;32;
56613;PMS5003;75854;35.670;139.690;2024-01-30T07:44:50;32;29;
56613;PMS5003;75854;35.670;139.690;2024-01-30T07:47:20;39;38;
56613;PMS5003;75854;35.670;139.690;2024-01-30T07:49:50;29;28;
56613;PMS5003;75854;35.670;139.690;2024-01-30T07:52:20;31;28;
56613;PMS5003;75854;35.670;139.690;2024-01-30T07:54:50;33;32;
56613;PMS5003;75854;35.670;139.690;2024-01-30T07:57:21;34;31;
56613;PMS5003;75854;35.670;139.690;2024-01-30T07:59:50;36;34;
56613;PMS5003;75854;35.670;139.690;2024-01-30T08:02:20;30;29;
56613;PMS5003;75854;35.670;139.690;2024-01-30T08:04:50;32;32;
56613;PMS5003;75854;35.670;139.690;2024-01-30T08:07:21;32;29;
56613;PMS5003;75854;35.670;139.690;2024-01-30T08:09:51;33;33;
56613;PMS5003;75854;35.670;139.690;2024-01-30T08:12:20;29;29;
56613;PMS5003;75854;35.670;139.690;2024-01-30T08:14:50;27;27;
56613;PMS5003;75854;35.670;139.690;2024-01-30T08:17:21;29;29;
56613;PMS5003;75854;35.670;139.690;2024-01-30T08:19:50;24;23;
56613;PMS5003;75854;35.670;139.690;2024-01-30T08:22:20;33;31;
56613;PMS5003;75854;35.670;139.690;2024-01-30T08:24:50;28;27;
56613;PMS5003;75854;35.670;139.690;2024-01-30T08:27:20;25;25;
56613;PMS5003;75854;35.670;139.690;2024-01-30T08:29:50;31;31;
56613;PMS5003;75854;35.670;139.690;2024-01-30T08:32:20;26;25;
56613;PMS5003;75854;35.670;139.690;2024-01-30T08:34:50;24;22;
56613;PMS5003;75854;35.670;139.690;2024-01-30T08:37:19;24;24;
56613;PMS5003;75854;35.670;139.690;2024-01-30T08:39:50;25;23;
56613;PMS5003;75854;35.670;139.690;2024-01-30T08:42:19;27;24;
56613;PMS5003;75854;35.670;139.690;2024-01-30T08:44:50;28;28;
56613;PMS5003;75854;35.670;139.690;2024-01-30T08:47:19;34;34;
56613;PMS5003;75854;35.670;139.690;2024-01-30T08:49:50;27;26;
56613;PMS5003;75854;35.670;139.690;2024-01-30T08:52:20;31;30;
56613;PMS5003;75854;35.670;139.690;2024-01-30T08:54:50;24;24;
56613;PMS5003;75854;35.670;139.690;2024-01-30T08:57:19;29;29;
56613;PMS5003;75854;35.670;139.690;2024-01-30T08:59:49;24;22;
56613;PMS5003;75854;35.670;139.690;2024-01-30T09:02:20;22;22;
56613;PMS5003;75854;35.670;139.690;2024-01-30T09:04:50;28;28;
56613;PMS5003;75854;35.670;139.690;2024-01-30T09:07:20;22;19;
56613;PMS5003;75854;35.670;139.690;2024-01-30T09:09:50;26;24;
56613;PMS5003;75854;35.670;139.690;2024-01-30T09:12:20;25;24;
56613;PMS5003;75854;35.670;139.690;2024-01-30T09:14:51;25;24;
56613;PMS5003;75854;35.670;139.690;2024-01-30T09:17:20;23;22;
56613;PMS5003;75854;35.670;139.690;2024-01-30T09:19:51;26;25;
56613;PMS5003;75854;35.670;139.690;2024-01-30T09:22:20;19;19;
56613;PMS5003;75854;35.670;139.690;2024-01-30T09:24:51;23;21;
56613;PMS5003;75854;35.670;139.690;2024-01-30T09:27:25;28;28;
56613;PMS5003;75854;35.670;139.690;2024-01-30T09:29:56;28;25;
56613;PMS5003;75854;35.670;139.690;2024-01-30T09:32:26;27;24;
56613;PMS5003;75854;35.670;139.690;2024-01-30T09:34:55;29;27;
56613;PMS5003;75854;35.670;139.690;2024-01-30T09:37:25;27;26;
56613;PMS5003;75854;35.670;139.690;2024-01-30T09:39:55;24;24;
56613;PMS5003;75854;35.670;139.690;2024-01-30T09:42:28;26;26;
56613;PMS5003;75854;35.670;139.690;2024-01-30T09:45:01;27;27;
56613;PMS5003;75854;35.670;139.690;2024-01-30T09:47:32;31;31;
56613;PMS5003;75854;35.670;139.690;2024-01-30T09:50:09;30;28;
56613;PMS5003;75854;35.670;139.690;2024-01-30T09:52:40;31;30;
56613;PMS5003;75854;35.670;139.690;2024-01-30T09:55:11;29;26;
56613;PMS5003;75854;35.670;139.690;2024-01-30T09:57:41;34;33;
56613;PMS5003;75854;35.670;139.690;2024-01-30T10:00:12;29;29;
56613;PMS5003;75854;35.670;139.690;2024-01-30T10:02:43;28;27;
56613;PMS5003;75854;35.670;139.690;2024-01-30T10:05:13;27;26;
56613;PMS5003;75854;35.670;139.690;2024-01-30T10:07:54;30;27;
56613;PMS5003;75854;35.670;139.690;2024-01-30T10:10:24;28;28;
56613;PMS5003;75854;35.670;139.690;2024-01-30T10:12:54;38;36;
56613;PMS5003;75854;35.670;139.690;2024-01-30T10:15:24;36;35;
56613;PMS5003;75854;35.670;139.690;2024-01-30T10:17:56;33;32;
56613;PMS5003;75854;35.670;139.690;2024-01-30T10:20:26;30;30;
56613;PMS5003;75854;35.670;139.690;2024-01-30T10:22:55;36;33;
56613;PMS5003;75854;35.670;139.690;2024-01-30T10:25:26;33;31;
56613;PMS5003;75854;35.670;139.690;2024-01-30T10:27:55;31;30;
56613;PMS5003;75854;35.670;139.690;2024-01-30T10:30:27;33;31;
56613;PMS5003;75854;35.670;139.690;2024-01-30T10:32:57;34;32;
56613;PMS5003;75854;35.670;139.690;2024-01-30T10:35:27;34;34;
56613;PMS5003;75854;35.670;139.690;2024-01-30T10:37:59;32;31;
56613;PMS5003;75854;35.670;139.690;2024-01-30T10:40:29;39;35;
56613;PMS5003;75854;35.670;139.690;2024-01-30T10:43:02;39;36;
56613;PMS5003;75854;35.670;139.690;2024-01-30T10:45:32;35;34;
56613;PMS5003;75854;35.670;139.690;2024-01-30T10:48:07;37;36;
56613;PMS5003;75854;35.670;139.690;2024-01-30T10:50:40;29;28;
56613;PMS5003;75854;35.670;139.690;2024-01-30T10:53:10;33;30;
56613;PMS5003;75854;35.670;139.690;2024-01-30T10:55:40;30;30;
56613;PMS5003;75854;35.670;139.690;2024-01-30T10:58:11;27;25;
56613;PMS5003;75854;35.670;139.690;2024-01-30T11:00:42;36;34;
56613;PMS5003;75854;35.670;139.690;2024-01-30T11:03:13;35;34;
56613;PMS5003;75854;35.670;139.690;2024-01-30T11:05:43;39;36;
56613;PMS5003;75854;35.670;139.690;2024-01-30T11:08:23;33;32;
56613;PMS5003;75854;35.670;139.690;2024-01-30T11:10:55;35;30;
56613;PMS5003;75854;35.670;139.690;2024-01-30T11:13:27;34;33;
56613;PMS5003;75854;35.670;139.690;2024-01-30T11:16:00;30;28;
56613;PMS5003;75854;35.670;139.690;2024-01-30T11:18:31;38;34;
56613;PMS5003;75854;35.670;139.690;2024-01-30T11:21:04;38;33;
56613;PMS5003;75854;35.670;139.690;2024-01-30T11:23:34;32;32;
56613;PMS5003;75854;35.670;139.690;2024-01-30T11:26:04;35;32;
56613;PMS5003;75854;35.670;139.690;2024-01-30T11:28:34;36;35;
56613;PMS5003;75854;35.670;139.690;2024-01-30T11:31:05;35;33;
56613;PMS5003;75854;35.670;139.690;2024-01-30T11:33:37;30;27;
56613;PMS5003;75854;35.670;139.690;2024-01-30T11:36:07;36;35;
56613;PMS5003;75854;35.670;139.690;2024-01-30T11:38:41;34;32;
56613;PMS5003;75854;35.670;139.690;2024-01-30T11:41:10;38;34;
56613;PMS5003;75854;35.670;139.690;2024-01-30T11:43:42;35;35;
56613;PMS5003;75854;35.670;139.690;2024-01-30T11:46:19;40;39;
56613;PMS5003;75854;35.670;139.690;2024-01-30T11:48:53;37;35;
56613;PMS5003;75854;35.670;139.690;2024-01-30T11:51:22;34;33;
56613;PMS5003;75854;35.670;139.690;2024-01-30T11:53:52;39;38;
56613;PMS5003;75854;35.670;139.690;2024-01-30T11:56:24;40;36;
56613;PMS5003;75854;35.670;139.690;2024-01-30T11:58:54;40;40;
56613;PMS5003;75854;35.670;139.690;2024-01-30T12:01:24;38;37;
56613;PMS5003;75854;35.670;139.690;2024-01-30T12:03:53;44;36;
56613;PMS5003;75854;35.670;139.690;2024-01-30T12:06:24;33;33;
56613;PMS5003;75854;35.670;139.690;2024-01-30T12:09:02;40;38;
56613;PMS5003;75854;35.670;139.690;2024-01-30T12:11:33;33;32;
56613;PMS5003;75854;35.670;139.690;2024-01-30T12:14:13;40;38;
56613;PMS5003;75854;35.670;139.690;2024-01-30T12:16:47;38;38;
56613;PMS5003;75854;35.670;139.690;2024-01-30T12:19:25;40;39;
56613;PMS5003;75854;35.670;139.690;2024-01-30T12:21:55;38;34;
56613;PMS5003;75854;35.670;139.690;2024-01-30T12:24:25;36;34;
56613;PMS5003;75854;35.670;139.690;2024-01-30T12:26:57;39;36;
56613;PMS5003;75854;35.670;139.690;2024-01-30T12:29:31;39;35;
56613;PMS5003;75854;35.670;139.690;2024-01-30T12:32:02;39;33;
56613;PMS5003;75854;35.670;139.690;2024-01-30T12:34:33;36;35;
56613;PMS5003;75854;35.670;139.690;2024-01-30T12:37:08;41;39;
56613;PMS5003;75854;35.670;139.690;2024-01-30T12:39:38;40;37;
56613;PMS5003;75854;35.670;139.690;2024-01-30T12:42:08;33;33;
56613;PMS5003;75854;35.670;139.690;2024-01-30T12:44:38;40;38;
56613;PMS5003;75854;35.670;139.690;2024-01-30T12:47:09;40;36;
56613;PMS5003;75854;35.670;139.690;2024-01-30T12:49:38;43;42;
56613;PMS5003;75854;35.670;139.690;2024-01-30T12:52:08;45;37;
56613;PMS5003;75854;35.670;139.690;2024-01-30T12:54:39;33;31;
56613;PMS5003;75854;35.670;139.690;2024-01-30T12:57:09;31;30;
56613;PMS5003;75854;35.670;139.690;2024-01-30T12:59:39;30;29;
56613;PMS5003;75854;35.670;139.690;2024-01-30T13:02:09;38;36;
56613;PMS5003;75854;35.670;139.690;2024-01-30T13:04:40;42;35;
56613;PMS5003;75854;35.670;139.690;2024-01-30T13:07:11;32;30;
56613;PMS5003;75854;35.670;139.690;2024-01-30T13:09:40;34;33;
56613;PMS5003;75854;35.670;139.690;2024-01-30T13:12:10;31;29;
56613;PMS5003;75854;35.670;139.690;2024-01-30T13:14:40;25;23;
56613;PMS5003;75854;35.670;139.690;2024-01-30T13:17:10;29;29;
56613;PMS5003;75854;35.670;139.690;2024-01-30T13:19:40;31;29;
56613;PMS5003;75854;35.670;139.690;2024-01-30T13:22:10;27;26;
56613;PMS5003;75854;35.670;139.690;2024-01-30T13:24:40;32;30;
56613;PMS5003;75854;35.670;139.690;2024-01-30T13:27:10;28;28;
56613;PMS5003;75854;35.670;139.690;2024-01-30T13:29:40;24;23;
56613;PMS5003;75854;35.670;139.690;2024-01-30T13:32:10;28;25;
56613;PMS5003;75854;35.670;139.690;2024-01-30T13:34:40;24;23;
56613;PMS5003;75854;35.670;139.690;2024-01-30T13:37:10;28;27;
56613;PMS5003;75854;35.670;139.690;2024-01-30T13:39:40;28;24;
56613;PMS5003;75854;35.670;139.690;2024-01-30T13:42:10;33;31;
56613;PMS5003;75854;35.670;139.690;2024-01-30T13:44:40;30;28;
56613;PMS5003;75854;35.670;139.690;2024-01-30T13:47:10;29;29;
56613;PMS5003;75854;35.670;139.690;2024-01-30T13:49:40;29;28;
56613;PMS5003;75854;35.670;139.690;2024-01-30T13:52:10;35;32;
56613;PMS5003;75854;35.670;139.690;2024-01-30T13:54:40;25;23;
56613;PMS5003;75854;35.670;139.690;2024-01-30T13:57:10;25;24;
56613;PMS5003;75854;35.670;139.690;2024-01-30T13:59:40;27;23;
56613;PMS5003;75854;35.670;139.690;2024-01-30T14:02:10;31;31;
56613;PMS5003;75854;35.670;139.690;2024-01-30T14:04:40;47;46;
56613;PMS5003;75854;35.670;139.690;2024-01-30T14:07:10;32;29;
56613;PMS5003;75854;35.670;139.690;2024-01-30T14:09:40;36;32;
56613;PMS5003;75854;35.670;139.690;2024-01-30T14:12:10;33;31;
56613;PMS5003;75854;35.670;139.690;2024-01-30T14:14:40;35;34;
56613;PMS5003;75854;35.670;139.690;2024-01-30T14:17:10;34;33;
56613;PMS5003;75854;35.670;139.690;2024-01-30T14:19:40;38;35;
56613;PMS5003;75854;35.670;139.690;2024-01-30T14:22:10;35;32;
56613;PMS5003;75854;35.670;139.690;2024-01-30T14:24:40;39;36;
56613;PMS5003;75854;35.670;139.690;2024-01-30T14:27:10;44;41;
56613;PMS5003;75854;35.670;139.690;2024-01-30T14:29:41;44;43;
56613;PMS5003;75854;35.670;139.690;2024-01-30T14:32:11;44;44;
56613;PMS5003;75854;35.670;139.690;2024-01-30T14:34:41;47;45;
56613;PMS5003;75854;35.670;139.690;2024-01-30T14:37:12;43;41;
56613;PMS5003;75854;35.670;139.690;2024-01-30T14:39:42;39;39;
56613;PMS5003;75854;35.670;139.690;2024-01-30T14:42:12;43;43;
56613;PMS5003;75854;35.670;139.690;2024-01-30T14:44:42;44;42;
56613;PMS5003;75854;35.670;139.690;2024-01-30T14:47:12;40;40;
56613;PMS5003;75854;35.670;139.690;2024-01-30T14:49:43;43;40;
56613;PMS5003;75854;35.670;139.690;2024-01-30T14:52:13;46;45;
56613;PMS5003;75854;35.670;139.690;2024-01-30T14:54:43;43;40;
56613;PMS5003;75854;35.670;139.690;2024-01-30T14:57:13;44;43;
56613;PMS5003;75854;35.670;139.690;2024-01-30T14:59:43;46;41;
56613;PMS5003;75854;35.670;139.690;2024-01-30T15:02:13;39;39;
56613;PMS5003;75854;35.670;139.690;2024-01-30T15:04:43;44;42;
56613;PMS5003;75854;35.670;139.690;2024-01-30T15:07:12;45;40;
56613;PMS5003;75854;35.670;139.690;2024-01-30T15:09:42;43;41;
56613;PMS5003;75854;35.670;139.690;2024-01-30T15:12:11;43;40;
56613;PMS5003;75854;35.670;139.690;2024-01-30T15:14:41;42;39;
56613;PMS5003;75854;35.670;139.690;2024-01-30T15:17:11;43;40;
56613;PMS5003;75854;35.670;139.690;2024-01-30T15:19:41;43;39;
56613;PMS5003;75854;35.670;139.690;2024-01-30T15:22:10;45;44;
56613;PMS5003;75854;35.670;139.690;2024-01-30T15:24:40;46;41;
56613;PMS5003;75854;35.670;139.690;2024-01-30T15:27:09;37;36;
56613;PMS5003;75854;35.670;139.690;2024-01-30T15:29:39;34;33;
56613;PMS5003;75854;35.670;139.690;2024-01-30T15:32:09;42;39;
56613;PMS5003;75854;35.670;139.690;2024-01-30T15:34:39;38;33;
56613;PMS5003;75854;35.670;139.690;2024-01-30T15:37:09;35;33;
56613;PMS5003;75854;35.670;139.690;2024-01-30T15:39:39;34;33;
56613;PMS5003;75854;35.670;139.690;2024-01-30T15:42:09;35;35;
56613;PMS5003;75854;35.670;139.690;2024-01-30T15:44:39;34;33;
56613;PMS5003;75854;35.670;139.690;2024-01-30T15:47:09;38;36;
56613;PMS5003;75854;35.670;139.690;2024-01-30T15:49:39;34;32;
56613;PMS5003;75854;35.670;139.690;2024-01-30T15:52:09;31;29;
56613;PMS5003;75854;35.670;139.690;2024-01-30T15:54:39;33;33;
56613;PMS5003;75854;35.670;139.690;2024-01-30T15:57:08;35;29;
56613;PMS5003;75854;35.670;139.690;2024-01-30T15:59:39;32;31;
56613;PMS5003;75854;35.670;139.690;2024-01-30T16:02:09;31;29;
56613;PMS5003;75854;35.670;139.690;2024-01-30T16:04:39;33;31;
56613;PMS5003;75854;35.670;139.690;2024-01-30T16:07:10;26;25;